Time;durP1;ratioP1;P1;durP2;ratioP2;P2;SDS_P1;SDS_P2;PMS_P1;PMS_P2;Temp;Humidity;BMP_temperature;BMP_pressure;BME280_temperature;BME280_humidity;BME280_pressure;Samples;Min_cycle;Max_cycle;Signal;HPM_P1;HPM_P2
2023/10/05 00:02:10;;;;;;;9.88;2.80;;;12.50;91.70;;;;;;5003758;28;20089;-69
2023/10/05 00:04:40;;;;;;;8.57;2.75;;;12.50;91.80;;;;;;5007474;28;20022;-68
2023/10/05 00:07:11;;;;;;;7.05;2.50;;;12.40;91.80;;;;;;5010052;28;20030;-68
2023/10/05 00:09:40;;;;;;;9.13;2.45;;;12.40;91.90;;;;;;5003306;28;20482;-68
2023/10/05 00:12:08;;;;;;;6.53;2.80;;;12.40;91.80;;;;;;5008968;28;20109;-68
2023/10/05 00:14:37;;;;;;;7.18;2.50;;;12.40;91.80;;;;;;5005425;28;20029;-67
2023/10/05 00:17:06;;;;;;;11.55;2.38;;;12.30;92.00;;;;;;5008127;28;20030;-70
2023/10/05 00:19:35;;;;;;;8.43;2.55;;;12.20;92.00;;;;;;5005971;28;20030;-67
2023/10/05 00:22:01;;;;;;;8.88;2.63;;;12.20;92.20;;;;;;5009153;28;20026;-67
2023/10/05 00:24:31;;;;;;;7.22;2.88;;;12.30;92.20;;;;;;5009222;28;20057;-67
2023/10/05 00:26:58;;;;;;;7.17;2.17;;;12.20;92.10;;;;;;5008227;28;20034;-67
2023/10/05 00:29:39;;;;;;;7.88;2.33;;;12.30;92.00;;;;;;5003529;28;20033;-69
2023/10/05 00:32:08;;;;;;;7.25;2.30;;;12.30;91.90;;;;;;5009618;28;20434;-68
2023/10/05 00:34:34;;;;;;;7.18;2.10;;;12.30;91.90;;;;;;5005319;28;20037;-69
2023/10/05 00:36:59;;;;;;;5.35;2.15;;;12.20;92.10;;;;;;5009503;28;20029;-67
2023/10/05 00:39:27;;;;;;;5.63;2.35;;;12.20;92.00;;;;;;5000738;28;20026;-68
2023/10/05 00:41:59;;;;;;;11.23;2.75;;;12.20;92.00;;;;;;5008593;28;20390;-66
2023/10/05 00:44:24;;;;;;;5.80;1.92;;;12.20;92.00;;;;;;5002931;28;20052;-68
2023/10/05 00:46:50;;;;;;;8.25;2.03;;;12.20;91.90;;;;;;5008450;28;20530;-69
2023/10/05 00:49:23;;;;;;;6.88;2.55;;;12.20;91.90;;;;;;5008164;28;20447;-68
2023/10/05 00:51:57;;;;;;;7.50;2.28;;;12.20;92.00;;;;;;5010802;28;20161;-68
2023/10/05 00:54:29;;;;;;;9.30;1.83;;;12.30;91.90;;;;;;5005288;28;20056;-68
2023/10/05 00:56:56;;;;;;;7.65;2.63;;;12.20;92.10;;;;;;4997471;28;20085;-68
2023/10/05 00:59:22;;;;;;;7.88;2.70;;;12.20;92.10;;;;;;5001807;28;20065;-67
2023/10/05 01:04:26;;;;;;;7.78;2.30;;;12.20;92.10;;;;;;5007775;28;20148;-68
2023/10/05 01:06:56;;;;;;;3.05;1.73;;;12.20;92.00;;;;;;5011295;28;20030;-68
2023/10/05 01:12:12;;;;;;;7.82;1.90;;;12.10;92.10;;;;;;5008328;28;20048;-68
2023/10/05 01:14:40;;;;;;;5.85;2.13;;;12.10;92.30;;;;;;5000643;28;20018;-67
2023/10/05 01:17:05;;;;;;;6.88;2.00;;;12.10;92.40;;;;;;5007011;28;20057;-67
2023/10/05 01:19:32;;;;;;;9.07;1.90;;;12.10;92.30;;;;;;5012219;28;20463;-68
2023/10/05 01:21:57;;;;;;;6.80;2.42;;;12.10;92.40;;;;;;5013231;28;20421;-68
2023/10/05 01:24:25;;;;;;;5.63;2.33;;;12.00;92.50;;;;;;5009934;28;20050;-68
2023/10/05 01:26:51;;;;;;;5.35;1.92;;;12.00;92.60;;;;;;5011150;28;20046;-68
2023/10/05 01:29:16;;;;;;;7.68;2.03;;;12.10;92.40;;;;;;5004687;28;20042;-68
2023/10/05 01:31:42;;;;;;;6.20;2.17;;;12.10;92.40;;;;;;5013352;28;20038;-69
2023/10/05 01:34:08;;;;;;;5.97;2.10;;;12.10;92.40;;;;;;5010665;28;20037;-67
2023/10/05 01:36:34;;;;;;;6.88;2.17;;;12.10;92.40;;;;;;5009182;28;20085;-67
2023/10/05 01:39:07;;;;;;;7.38;2.40;;;12.10;92.40;;;;;;5006689;28;20018;-68
2023/10/05 01:41:33;;;;;;;6.10;2.42;;;12.10;92.20;;;;;;5012389;28;20184;-67
2023/10/05 01:44:00;;;;;;;5.53;1.98;;;12.10;92.40;;;;;;5009191;28;20160;-68
2023/10/05 01:46:26;;;;;;;7.97;2.05;;;12.10;92.30;;;;;;5003913;28;20376;-68
2023/10/05 01:48:52;;;;;;;4.82;2.13;;;12.10;92.40;;;;;;5011503;28;20053;-71
2023/10/05 01:51:23;;;;;;;6.32;2.15;;;12.10;92.50;;;;;;5013390;28;20557;-68
2023/10/05 01:53:51;;;;;;;;;;;12.00;92.50;;;;;;5011083;28;20131;-68
2023/10/05 01:56:21;;;;;;;5.15;1.90;;;12.10;92.70;;;;;;5005737;28;19906;-68
2023/10/05 01:58:52;;;;;;;7.53;1.92;;;12.00;92.80;;;;;;5003032;28;20061;-68
2023/10/05 02:01:22;;;;;;;7.40;2.35;;;12.10;92.80;;;;;;5012216;28;20084;-69
2023/10/05 02:03:54;;;;;;;7.32;1.85;;;12.00;92.70;;;;;;5004875;28;20025;-68
2023/10/05 02:06:22;;;;;;;4.15;2.05;;;12.10;92.90;;;;;;5011119;28;20041;-68
2023/10/05 02:08:48;;;;;;;7.85;2.10;;;12.10;92.80;;;;;;5012620;28;20068;-68
2023/10/05 02:11:17;;;;;;;7.03;2.30;;;12.10;92.80;;;;;;5012522;28;20574;-68
2023/10/05 02:13:43;;;;;;;5.95;2.13;;;12.10;92.70;;;;;;5006121;28;20087;-69
2023/10/05 02:16:18;;;;;;;7.97;2.20;;;12.10;92.80;;;;;;5007558;28;20454;-69
2023/10/05 02:18:44;;;;;;;7.38;2.20;;;12.10;93.00;;;;;;5010759;28;20022;-68
2023/10/05 02:21:30;;;;;;;6.32;2.08;;;12.10;92.90;;;;;;5013364;28;20033;-68
2023/10/05 02:24:10;;;;;;;7.28;2.47;;;12.10;93.00;;;;;;5009256;28;20026;-68
2023/10/05 02:26:39;;;;;;;7.38;2.50;;;12.10;92.90;;;;;;5000866;28;20505;-67
2023/10/05 02:29:13;;;;;;;11.07;2.65;;;12.10;93.00;;;;;;5008312;28;20475;-69
2023/10/05 02:31:50;;;;;;;8.73;2.33;;;12.10;93.00;;;;;;5008446;28;20046;-68
2023/10/05 02:34:19;;;;;;;7.18;2.60;;;12.10;93.10;;;;;;5010768;28;20041;-68
2023/10/05 02:36:44;;;;;;;5.50;2.20;;;12.10;93.10;;;;;;5012744;28;20026;-69
2023/10/05 02:39:10;;;;;;;6.32;2.20;;;12.10;93.20;;;;;;5010886;28;20030;-68
2023/10/05 02:41:39;;;;;;;6.88;2.10;;;12.10;93.20;;;;;;5011285;28;20061;-68
2023/10/05 02:44:17;;;;;;;8.82;2.17;;;12.00;93.30;;;;;;5008863;28;20026;-67
2023/10/05 02:46:43;;;;;;;4.32;1.98;;;12.10;93.30;;;;;;5012585;28;20419;-68
2023/10/05 02:49:09;;;;;;;5.25;2.53;;;12.00;93.40;;;;;;5006694;28;20033;-68
2023/10/05 02:51:35;;;;;;;7.32;2.35;;;12.10;93.50;;;;;;5005235;28;20125;-68
2023/10/05 02:54:04;;;;;;;8.75;2.20;;;12.00;93.60;;;;;;5002121;28;20491;-68
2023/10/05 02:56:31;;;;;;;7.55;2.50;;;12.10;93.50;;;;;;5016789;28;20041;-68
2023/10/05 02:59:02;;;;;;;7.15;2.55;;;12.10;93.40;;;;;;5005407;28;20034;-69
2023/10/05 03:01:32;;;;;;;5.95;2.33;;;12.10;93.40;;;;;;5007039;28;20046;-68
2023/10/05 03:04:09;;;;;;;4.65;1.95;;;12.10;93.50;;;;;;5004552;28;20102;-68
2023/10/05 03:06:35;;;;;;;7.97;2.53;;;12.10;93.70;;;;;;5008960;28;20383;-68
2023/10/05 03:09:06;;;;;;;8.00;2.22;;;12.10;93.70;;;;;;5007960;28;20113;-68
2023/10/05 03:11:40;;;;;;;8.90;2.80;;;12.10;93.70;;;;;;5009317;28;20026;-68
2023/10/05 03:14:10;;;;;;;7.00;2.42;;;12.10;93.70;;;;;;5006507;28;20062;-68
2023/10/05 03:16:43;;;;;;;6.13;2.67;;;12.10;93.80;;;;;;5009587;28;20026;-68
2023/10/05 03:19:12;;;;;;;8.00;2.38;;;12.10;93.80;;;;;;5009170;28;20053;-68
2023/10/05 03:21:37;;;;;;;9.07;2.40;;;12.10;93.90;;;;;;5009496;28;20029;-68
2023/10/05 03:24:03;;;;;;;7.90;2.45;;;12.00;94.00;;;;;;5007649;28;20033;-68
2023/10/05 03:26:29;;;;;;;11.15;2.70;;;12.10;94.00;;;;;;5008952;28;20084;-67
2023/10/05 03:28:54;;;;;;;9.25;2.85;;;12.10;94.00;;;;;;5006522;28;20140;-68
2023/10/05 03:31:32;;;;;;;10.73;2.40;;;12.10;94.00;;;;;;5009565;28;20038;-68
2023/10/05 03:33:57;;;;;;;7.97;2.20;;;12.10;94.00;;;;;;5005061;28;20032;-68
2023/10/05 03:36:24;;;;;;;8.07;2.47;;;12.10;94.00;;;;;;5012171;28;20057;-69
2023/10/05 03:38:56;;;;;;;6.88;2.42;;;12.10;94.00;;;;;;5008646;28;20394;-68
2023/10/05 03:41:28;;;;;;;10.60;2.40;;;12.10;93.90;;;;;;5008006;28;20380;-67
2023/10/05 03:44:01;;;;;;;5.88;2.20;;;12.10;94.10;;;;;;5004950;28;20038;-68
2023/10/05 03:46:27;;;;;;;8.05;2.58;;;12.10;94.20;;;;;;5010239;28;20068;-67
2023/10/05 03:48:59;;;;;;;9.43;2.30;;;12.10;94.20;;;;;;5004459;28;20037;-68
2023/10/05 03:51:25;;;;;;;8.15;2.22;;;12.10;94.10;;;;;;5007669;28;20062;-67
2023/10/05 03:53:51;;;;;;;8.82;2.75;;;12.10;94.20;;;;;;5003985;28;20029;-67
2023/10/05 03:56:21;;;;;;;6.38;2.78;;;12.10;94.20;;;;;;5009268;28;20033;-69
2023/10/05 03:58:48;;;;;;;6.40;2.33;;;12.10;94.20;;;;;;4997870;28;20095;-68
2023/10/05 04:01:14;;;;;;;7.18;2.10;;;12.10;94.30;;;;;;5009171;28;20578;-69
2023/10/05 04:03:41;;;;;;;6.00;2.53;;;12.20;94.20;;;;;;5006873;28;20036;-68
2023/10/05 04:06:25;;;;;;;10.88;2.60;;;12.20;94.20;;;;;;5009583;28;20041;-68
2023/10/05 04:08:57;;;;;;;6.65;2.42;;;12.10;94.20;;;;;;5010028;28;20033;-69
2023/10/05 04:11:26;;;;;;;9.30;2.55;;;12.20;94.30;;;;;;5011132;28;20041;-67
2023/10/05 04:13:53;;;;;;;9.90;2.33;;;12.20;94.20;;;;;;5006974;28;20038;-69
2023/10/05 04:16:26;;;;;;;7.50;2.35;;;12.20;94.00;;;;;;5007055;28;20037;-68
2023/10/05 04:18:52;;;;;;;8.32;2.22;;;12.20;94.10;;;;;;5002585;28;20509;-68
2023/10/05 04:21:18;;;;;;;10.23;2.92;;;12.30;94.10;;;;;;5009531;28;20084;-68
2023/10/05 04:23:49;;;;;;;7.22;2.42;;;12.20;94.10;;;;;;5007792;28;20033;-69
2023/10/05 04:26:19;;;;;;;6.28;2.20;;;12.30;93.90;;;;;;5010059;28;20487;-67
2023/10/05 04:28:52;;;;;;;7.95;2.20;;;12.30;94.00;;;;;;5004725;28;20101;-66
2023/10/05 04:31:22;;;;;;;7.32;2.58;;;12.30;94.10;;;;;;5007068;28;20030;-66
2023/10/05 04:33:49;;;;;;;13.48;2.60;;;12.30;94.10;;;;;;5007971;28;20248;-65
2023/10/05 04:36:16;;;;;;;10.30;2.45;;;12.20;94.20;;;;;;5010818;28;20041;-66
2023/10/05 04:38:43;;;;;;;13.98;2.65;;;12.20;94.20;;;;;;5000643;28;20072;-65
2023/10/05 04:41:12;;;;;;;7.80;2.63;;;12.30;94.30;;;;;;5007345;28;20084;-66
2023/10/05 04:43:42;;;;;;;6.72;1.85;;;12.30;94.30;;;;;;4994486;28;20022;-66
2023/10/05 04:46:09;;;;;;;11.15;2.60;;;12.20;94.30;;;;;;4999381;28;20034;-68
2023/10/05 04:48:38;;;;;;;6.40;2.08;;;12.20;94.40;;;;;;4999412;28;20084;-68
2023/10/05 04:51:05;;;;;;;8.48;2.00;;;12.20;94.40;;;;;;5007178;28;20117;-66
2023/10/05 04:53:32;;;;;;;7.85;2.33;;;12.30;94.40;;;;;;5006672;28;20026;-66
2023/10/05 04:56:00;;;;;;;9.63;2.20;;;12.20;94.50;;;;;;5008525;28;20033;-65
2023/10/05 04:58:52;;;;;;;7.25;1.98;;;12.20;94.50;;;;;;5001191;28;20479;-66
2023/10/05 05:01:32;;;;;;;8.73;2.28;;;12.30;94.50;;;;;;5002303;28;20027;-69
2023/10/05 05:04:13;;;;;;;8.40;2.17;;;12.30;94.40;;;;;;5003483;28;20018;-66
2023/10/05 05:06:41;;;;;;;;;;;12.30;94.40;;;;;;4997990;28;20033;-66
2023/10/05 05:09:11;;;;;;;10.13;3.15;;;12.30;94.50;;;;;;4998563;28;19949;-66
2023/10/05 05:11:37;;;;;;;8.80;2.60;;;12.30;94.40;;;;;;5005143;28;20076;-66
2023/10/05 05:14:04;;;;;;;8.65;2.47;;;12.30;94.50;;;;;;5005771;28;20117;-65
2023/10/05 05:16:30;;;;;;;8.73;2.28;;;12.30;94.50;;;;;;5006079;28;20133;-65
2023/10/05 05:18:55;;;;;;;7.47;2.28;;;12.30;94.50;;;;;;5008024;28;20026;-66
2023/10/05 05:21:20;;;;;;;5.15;2.28;;;12.30;94.50;;;;;;5006298;28;20153;-66
2023/10/05 05:23:49;;;;;;;10.23;3.00;;;12.30;94.50;;;;;;5009377;28;20034;-67
2023/10/05 05:26:14;;;;;;;9.55;2.55;;;12.40;94.40;;;;;;5005445;28;20042;-66
2023/10/05 05:28:43;;;;;;;8.20;2.15;;;12.50;94.40;;;;;;4997055;28;20030;-66
2023/10/05 05:31:14;;;;;;;8.68;2.28;;;12.50;94.20;;;;;;5005194;28;20125;-67
2023/10/05 05:33:41;;;;;;;8.23;1.90;;;12.60;94.10;;;;;;5001959;28;20025;-65
2023/10/05 05:36:11;;;;;;;10.32;2.47;;;12.60;94.00;;;;;;5008363;28;20080;-66
2023/10/05 05:38:38;;;;;;;7.00;2.13;;;12.60;94.00;;;;;;5006693;28;20022;-65
2023/10/05 05:41:20;;;;;;;9.75;2.22;;;12.60;94.00;;;;;;5002853;28;20161;-66
2023/10/05 05:43:46;;;;;;;6.38;1.80;;;12.60;94.00;;;;;;5000257;28;20042;-69
2023/10/05 05:46:14;;;;;;;11.90;2.13;;;12.70;93.90;;;;;;5006273;28;20026;-66
2023/10/05 05:48:42;;;;;;;6.32;2.00;;;12.70;93.70;;;;;;4997982;28;20034;-68
2023/10/05 05:51:22;;;;;;;9.02;2.28;;;12.80;93.60;;;;;;5002894;28;20034;-65
2023/10/05 05:53:48;;;;;;;9.93;2.58;;;12.80;93.50;;;;;;5009123;28;20042;-65
2023/10/05 05:56:19;;;;;;;8.25;2.20;;;12.90;93.40;;;;;;5009160;28;20396;-65
2023/10/05 05:58:47;;;;;;;4.13;1.90;;;12.90;93.40;;;;;;4998265;28;20038;-66
2023/10/05 06:01:16;;;;;;;11.18;2.50;;;12.90;93.30;;;;;;4999020;28;20064;-67
2023/10/05 06:03:44;;;;;;;5.60;1.85;;;12.90;93.30;;;;;;4998992;28;20045;-65
2023/10/05 06:06:09;;;;;;;5.82;1.95;;;12.90;93.30;;;;;;5011813;28;20034;-67
2023/10/05 06:08:35;;;;;;;6.55;1.92;;;12.90;93.30;;;;;;5009241;28;20095;-69
2023/10/05 06:11:06;;;;;;;6.65;2.10;;;13.00;93.20;;;;;;5002760;28;20022;-66
2023/10/05 06:13:36;;;;;;;;;;;13.00;93.10;;;;;;5009159;28;20561;-66
2023/10/05 06:16:06;;;;;;;7.47;1.97;;;13.00;93.10;;;;;;5003049;28;19913;-66
2023/10/05 06:18:32;;;;;;;6.90;2.00;;;13.00;93.00;;;;;;5011231;28;20320;-65
2023/10/05 06:20:57;;;;;;;7.97;1.75;;;13.00;93.00;;;;;;5007952;28;20433;-66
2023/10/05 06:23:23;;;;;;;5.47;1.80;;;13.10;92.90;;;;;;5012266;28;20026;-65
2023/10/05 06:25:50;;;;;;;10.65;2.15;;;13.10;92.70;;;;;;5007159;28;20092;-66
2023/10/05 06:28:15;;;;;;;6.68;1.85;;;13.30;92.60;;;;;;5005488;28;20017;-66
2023/10/05 06:30:41;;;;;;;7.40;1.88;;;13.30;92.40;;;;;;5001536;28;20038;-65
2023/10/05 06:33:08;;;;;;;7.15;1.92;;;13.40;92.30;;;;;;5008573;28;20040;-66
2023/10/05 06:35:34;;;;;;;9.85;2.28;;;13.40;92.20;;;;;;4997643;28;20030;-67
2023/10/05 06:37:59;;;;;;;7.35;2.17;;;13.50;92.10;;;;;;5009889;28;20113;-66
2023/10/05 06:40:25;;;;;;;14.18;2.35;;;13.50;91.70;;;;;;5004483;28;20486;-65
2023/10/05 06:42:51;;;;;;;6.63;1.85;;;13.50;92.00;;;;;;5011905;28;20026;-66
2023/10/05 06:45:19;;;;;;;3.38;1.60;;;13.50;91.80;;;;;;5009736;28;20022;-66
2023/10/05 06:47:45;;;;;;;8.68;1.95;;;13.50;91.90;;;;;;5010183;28;20255;-65
2023/10/05 06:50:11;;;;;;;8.93;2.13;;;13.50;91.80;;;;;;5008394;28;20038;-65
2023/10/05 06:52:39;;;;;;;8.57;2.30;;;13.60;91.90;;;;;;5011127;28;20040;-65
2023/10/05 06:55:09;;;;;;;7.10;2.25;;;13.50;91.80;;;;;;5005841;28;20032;-66
2023/10/05 06:57:36;;;;;;;10.75;2.15;;;13.50;91.80;;;;;;5023721;28;20124;-66
2023/10/05 07:00:16;;;;;;;5.53;1.90;;;13.60;91.80;;;;;;5003205;28;20121;-65
2023/10/05 07:02:43;;;;;;;12.25;1.92;;;13.60;91.70;;;;;;5012850;28;20471;-66
2023/10/05 07:05:10;;;;;;;7.75;2.00;;;13.60;91.80;;;;;;5004486;28;20033;-65
2023/10/05 07:07:35;;;;;;;6.38;1.95;;;13.60;91.90;;;;;;5004025;28;20030;-66
2023/10/05 07:10:03;;;;;;;12.27;2.40;;;13.60;91.60;;;;;;5008344;28;20044;-66
2023/10/05 07:12:31;;;;;;;9.15;1.85;;;13.60;91.90;;;;;;5005653;28;20026;-65
2023/10/05 07:14:57;;;;;;;7.07;1.80;;;13.60;92.20;;;;;;5004176;28;20030;-65
2023/10/05 07:17:25;;;;;;;8.82;2.17;;;13.60;92.40;;;;;;5000022;28;20030;-65
2023/10/05 07:19:50;;;;;;;8.38;2.20;;;13.60;92.40;;;;;;5003930;28;20026;-69
2023/10/05 07:22:17;;;;;;;6.00;2.00;;;13.60;92.70;;;;;;5011567;28;20544;-66
2023/10/05 07:24:43;;;;;;;4.63;2.10;;;13.50;92.80;;;;;;5004481;28;20136;-66
2023/10/05 07:27:08;;;;;;;8.43;2.22;;;13.50;93.10;;;;;;5004137;28;20118;-68
2023/10/05 07:29:34;;;;;;;7.82;1.92;;;13.50;93.10;;;;;;5003647;28;20116;-67
2023/10/05 07:32:00;;;;;;;5.75;2.15;;;13.50;93.20;;;;;;5002403;28;20410;-65
2023/10/05 07:34:27;;;;;;;12.88;2.88;;;13.50;93.30;;;;;;5006524;28;20033;-66
2023/10/05 07:36:54;;;;;;;7.32;2.10;;;13.50;93.50;;;;;;5008464;28;20060;-66
2023/10/05 07:39:23;;;;;;;10.02;2.35;;;13.40;94.10;;;;;;5004049;28;20072;-65
2023/10/05 07:41:51;;;;;;;13.30;2.97;;;13.50;94.20;;;;;;5010739;28;20057;-65
2023/10/05 07:44:17;;;;;;;9.07;2.00;;;13.50;94.30;;;;;;5008599;28;20573;-65
2023/10/05 07:46:43;;;;;;;10.18;2.10;;;13.50;94.10;;;;;;5012195;28;20029;-65
2023/10/05 07:49:11;;;;;;;10.57;2.42;;;13.50;94.60;;;;;;5010926;28;20033;-65
2023/10/05 07:51:37;;;;;;;8.00;2.67;;;13.40;94.50;;;;;;5010566;28;20096;-66
2023/10/05 07:54:03;;;;;;;10.63;2.63;;;13.40;94.80;;;;;;5009072;28;20029;-66
2023/10/05 07:56:32;;;;;;;10.30;2.40;;;13.40;94.80;;;;;;5012304;28;20530;-66
2023/10/05 07:58:57;;;;;;;9.95;2.50;;;13.40;95.00;;;;;;5006354;28;20033;-65
2023/10/05 08:01:23;;;;;;;8.43;2.33;;;13.40;95.10;;;;;;5005965;28;20448;-66
2023/10/05 08:03:49;;;;;;;11.10;2.30;;;13.40;95.30;;;;;;4999257;28;20110;-65
2023/10/05 08:06:15;;;;;;;11.93;3.03;;;13.40;95.70;;;;;;5003599;28;20029;-66
2023/10/05 08:08:44;;;;;;;13.07;2.97;;;13.30;96.10;;;;;;4996463;28;20030;-66
2023/10/05 08:11:15;;;;;;;8.73;2.83;;;13.30;96.50;;;;;;5012004;28;20026;-66
2023/10/05 08:13:41;;;;;;;7.45;2.28;;;13.30;96.90;;;;;;5006241;28;20037;-65
2023/10/05 08:16:10;;;;;;;13.80;2.97;;;13.30;97.20;;;;;;5011194;28;20431;-66
2023/10/05 08:18:36;;;;;;;7.32;2.30;;;13.20;97.40;;;;;;5009762;28;20561;-66
2023/10/05 08:21:04;;;;;;;8.23;2.45;;;13.20;97.70;;;;;;5012715;28;20034;-67
2023/10/05 08:23:30;;;;;;;10.40;2.50;;;13.20;97.80;;;;;;5008890;28;20042;-66
2023/10/05 08:25:57;;;;;;;10.20;2.47;;;13.20;98.00;;;;;;5011419;28;20057;-67
2023/10/05 08:28:24;;;;;;;10.35;2.95;;;13.20;98.10;;;;;;5000233;28;20041;-67
2023/10/05 08:31:05;;;;;;;11.48;2.55;;;13.30;98.30;;;;;;5006918;28;20022;-67
2023/10/05 08:33:34;;;;;;;14.80;3.35;;;13.20;98.30;;;;;;5004177;28;20041;-66
2023/10/05 08:36:06;;;;;;;11.88;2.83;;;13.20;98.40;;;;;;5004415;28;20121;-67
2023/10/05 08:38:33;;;;;;;9.95;2.90;;;13.20;98.50;;;;;;5001119;28;20022;-67
2023/10/05 08:41:01;;;;;;;11.43;3.10;;;13.20;98.60;;;;;;5007926;28;20029;-67
2023/10/05 08:43:27;;;;;;;6.93;2.50;;;13.20;98.70;;;;;;5009015;28;20365;-67
2023/10/05 08:46:02;;;;;;;8.65;2.97;;;13.30;98.80;;;;;;5009537;28;20445;-67
2023/10/05 08:48:28;;;;;;;9.45;2.90;;;13.20;98.80;;;;;;5000134;28;20117;-67
2023/10/05 08:50:58;;;;;;;8.63;3.10;;;13.20;98.80;;;;;;5010253;28;20109;-68
2023/10/05 08:53:24;;;;;;;11.75;2.88;;;13.30;98.80;;;;;;5010281;28;20034;-66
2023/10/05 08:55:53;;;;;;;8.85;2.88;;;13.30;98.80;;;;;;5009546;28;20037;-70
2023/10/05 08:58:20;;;;;;;11.15;3.20;;;13.30;98.80;;;;;;5000338;28;20113;-67
2023/10/05 09:00:46;;;;;;;7.03;3.25;;;13.30;98.90;;;;;;5003666;28;20040;-67
2023/10/05 09:03:30;;;;;;;6.28;3.15;;;13.40;99.00;;;;;;5011231;28;20129;-66
2023/10/05 09:06:20;;;;;;;9.85;2.65;;;13.40;99.00;;;;;;5010397;28;20038;-67
2023/10/05 09:09:07;;;;;;;9.20;2.80;;;13.30;99.00;;;;;;5007734;28;20072;-66
2023/10/05 09:11:34;;;;;;;10.00;3.60;;;13.50;99.10;;;;;;5004592;28;20037;-67
2023/10/05 09:14:17;;;;;;;7.55;3.38;;;13.60;99.10;;;;;;5001628;28;20418;-67
2023/10/05 09:16:46;;;;;;;6.05;3.13;;;13.60;99.10;;;;;;5004633;28;20475;-67
2023/10/05 09:19:33;;;;;;;9.27;2.97;;;13.70;99.00;;;;;;5008592;28;20370;-67
2023/10/05 09:24:29;;;;;;;6.72;2.50;;;13.80;98.80;;;;;;5009878;28;20485;-68
2023/10/05 09:27:12;;;;;;;6.75;2.63;;;13.80;98.50;;;;;;5009474;28;20061;-67
2023/10/05 09:29:39;;;;;;;4.28;2.05;;;13.80;98.60;;;;;;5009909;28;20037;-67
2023/10/05 09:32:09;;;;;;;8.32;2.78;;;13.80;98.50;;;;;;5011589;28;20029;-67
2023/10/05 09:34:35;;;;;;;5.63;2.50;;;13.80;98.50;;;;;;5008561;28;20116;-66
2023/10/05 09:37:09;;;;;;;5.57;2.03;;;13.80;98.60;;;;;;5009525;28;20113;-69
2023/10/05 09:39:43;;;;;;;6.15;2.22;;;13.80;98.70;;;;;;5010199;28;20034;-68
2023/10/05 09:42:25;;;;;;;4.00;1.98;;;13.80;98.70;;;;;;5014664;28;20037;-68
2023/10/05 09:45:08;;;;;;;6.20;2.40;;;13.70;98.80;;;;;;5010875;28;20025;-70
2023/10/05 09:47:35;;;;;;;5.50;1.75;;;13.70;99.00;;;;;;5013386;28;20036;-69
2023/10/05 09:50:12;;;;;;;5.00;1.10;;;13.60;99.10;;;;;;5011714;28;20059;-68
2023/10/05 09:52:43;;;;;;;5.22;0.65;;;13.40;98.80;;;;;;5009998;28;20034;-69
2023/10/05 09:55:12;;;;;;;1.67;0.50;;;13.50;98.20;;;;;;5010616;28;20506;-68
2023/10/05 09:57:41;;;;;;;1.92;0.65;;;13.50;98.30;;;;;;5007335;28;20509;-69
2023/10/05 10:00:12;;;;;;;5.25;1.23;;;13.50;98.20;;;;;;5000174;28;20022;-69
2023/10/05 10:02:40;;;;;;;9.05;1.27;;;13.50;98.10;;;;;;5007907;28;20034;-68
2023/10/05 10:05:26;;;;;;;4.13;0.88;;;13.60;98.10;;;;;;5010580;28;20125;-68
2023/10/05 10:07:55;;;;;;;3.60;0.68;;;13.70;97.60;;;;;;5003563;28;20069;-68
2023/10/05 10:10:22;;;;;;;1.27;0.55;;;13.90;97.50;;;;;;5009897;28;20059;-68
2023/10/05 10:12:51;;;;;;;6.90;0.90;;;14.00;97.50;;;;;;5007727;28;20026;-71
2023/10/05 10:15:31;;;;;;;6.20;0.90;;;14.10;97.50;;;;;;5012662;28;20029;-68
2023/10/05 10:18:07;;;;;;;4.57;1.00;;;14.20;97.60;;;;;;5011451;28;20368;-67
2023/10/05 10:20:36;;;;;;;5.32;1.20;;;14.30;97.80;;;;;;5001961;28;20445;-68
2023/10/05 10:23:22;;;;;;;4.90;1.10;;;14.30;97.90;;;;;;5009328;28;20034;-69
2023/10/05 10:25:50;;;;;;;5.97;1.30;;;14.30;97.90;;;;;;5003674;28;20054;-69
2023/10/05 10:31:18;;;;;;;2.75;1.20;;;14.30;98.00;;;;;;5013916;28;20394;-68
2023/10/05 10:33:50;;;;;;;3.75;1.30;;;14.30;98.00;;;;;;5012585;28;20038;-69
2023/10/05 10:36:18;;;;;;;5.55;1.27;;;14.40;97.90;;;;;;5008604;28;20439;-67
2023/10/05 10:38:50;;;;;;;5.80;1.40;;;14.40;97.60;;;;;;5008077;28;20057;-68
2023/10/05 10:41:17;;;;;;;3.45;1.40;;;14.60;97.80;;;;;;5011866;28;20390;-68
2023/10/05 10:43:57;;;;;;;3.58;1.33;;;14.70;97.70;;;;;;5009810;28;20037;-69
2023/10/05 10:46:29;;;;;;;2.70;1.15;;;15.00;97.70;;;;;;5008052;28;20037;-68
2023/10/05 10:48:58;;;;;;;3.55;1.10;;;15.00;97.20;;;;;;5011514;28;20536;-68
2023/10/05 10:51:31;;;;;;;7.38;1.60;;;15.10;96.40;;;;;;5011438;28;20042;-69
2023/10/05 10:53:59;;;;;;;7.30;1.33;;;15.10;96.10;;;;;;5012339;28;20084;-68
2023/10/05 10:56:34;;;;;;;3.05;1.08;;;15.20;95.90;;;;;;4999199;28;20077;-69
2023/10/05 10:59:10;;;;;;;5.75;1.20;;;15.30;95.80;;;;;;5002472;28;20087;-69
2023/10/05 11:01:52;;;;;;;8.27;1.10;;;15.20;95.50;;;;;;5013512;28;20487;-69
2023/10/05 11:04:25;;;;;;;2.53;0.90;;;15.30;95.70;;;;;;5008440;28;20034;-69
2023/10/05 11:07:05;;;;;;;2.40;1.10;;;15.30;95.60;;;;;;5004423;28;20036;-69
2023/10/05 11:09:37;;;;;;;6.68;0.70;;;15.30;95.60;;;;;;5006755;28;20100;-69
2023/10/05 11:12:10;;;;;;;5.63;1.15;;;15.30;95.50;;;;;;5009006;28;20034;-70
2023/10/05 11:14:37;;;;;;;3.15;0.90;;;15.20;95.40;;;;;;5008191;28;20034;-69
2023/10/05 11:17:11;;;;;;;5.63;1.20;;;15.20;95.20;;;;;;5009200;28;20034;-68
2023/10/05 11:19:37;;;;;;;2.97;0.93;;;15.10;95.30;;;;;;5012976;28;20029;-71
2023/10/05 11:22:11;;;;;;;3.85;0.88;;;15.20;95.10;;;;;;5007637;28;20116;-67
2023/10/05 11:25:14;;;;;;;6.00;1.33;;;15.40;95.40;;;;;;5010642;28;20030;-68
2023/10/05 11:27:41;;;;;;;6.68;1.33;;;15.30;94.50;;;;;;5004972;28;20160;-68
2023/10/05 11:30:08;;;;;;;5.78;1.10;;;15.50;94.60;;;;;;5006775;28;20136;-68
2023/10/05 11:32:35;;;;;;;2.63;0.88;;;15.70;94.50;;;;;;5003825;28;20042;-69
2023/10/05 11:35:04;;;;;;;3.65;1.00;;;15.90;93.80;;;;;;5009186;28;20032;-67
2023/10/05 11:37:32;;;;;;;2.97;0.98;;;15.70;92.70;;;;;;5005059;28;20534;-70
2023/10/05 11:40:00;;;;;;;5.80;0.98;;;15.60;93.30;;;;;;5002157;28;20034;-69
2023/10/05 11:42:27;;;;;;;4.38;0.93;;;15.70;93.80;;;;;;5008071;28;20109;-68
2023/10/05 11:44:59;;;;;;;3.47;0.80;;;16.10;92.30;;;;;;5008266;28;20029;-68
2023/10/05 11:47:35;;;;;;;5.90;1.13;;;16.50;91.50;;;;;;4996860;28;20397;-68
2023/10/05 11:50:08;;;;;;;5.50;0.93;;;16.40;91.30;;;;;;5003696;28;20034;-68
2023/10/05 11:52:37;;;;;;;3.95;1.10;;;16.90;90.40;;;;;;5007814;28;20042;-69
2023/10/05 11:55:07;;;;;;;5.28;1.00;;;16.60;90.10;;;;;;4997177;28;20033;-71
2023/10/05 11:57:32;;;;;;;4.43;0.80;;;16.50;91.40;;;;;;5010746;28;20022;-67
2023/10/05 11:59:59;;;;;;;4.32;0.90;;;16.20;91.40;;;;;;5003738;28;20371;-68
2023/10/05 12:02:26;;;;;;;3.45;0.90;;;16.00;92.00;;;;;;5008733;28;20022;-67
2023/10/05 12:04:52;;;;;;;6.43;1.20;;;15.80;91.90;;;;;;5004063;28;20034;-68
2023/10/05 12:07:17;;;;;;;4.93;1.13;;;15.80;92.90;;;;;;5009004;28;20021;-68
2023/10/05 12:09:43;;;;;;;4.15;1.20;;;15.80;92.40;;;;;;5001416;28;20053;-68
2023/10/05 12:12:13;;;;;;;4.82;0.70;;;15.80;92.10;;;;;;5009053;28;20045;-68
2023/10/05 12:14:39;;;;;;;4.43;0.90;;;15.80;92.20;;;;;;5003107;28;20061;-69
2023/10/05 12:17:05;;;;;;;6.90;1.20;;;15.70;92.10;;;;;;5000161;28;20084;-67
2023/10/05 12:19:33;;;;;;;2.78;0.93;;;15.70;92.10;;;;;;5005532;28;20038;-68
2023/10/05 12:22:01;;;;;;;5.03;1.25;;;15.80;92.60;;;;;;5002639;28;20579;-66
2023/10/05 12:24:27;;;;;;;5.05;1.20;;;15.80;92.20;;;;;;5008099;28;20109;-68
2023/10/05 12:26:53;;;;;;;5.20;1.27;;;16.10;91.90;;;;;;5004334;28;21107;-68
2023/10/05 12:29:19;;;;;;;3.30;1.00;;;16.80;90.20;;;;;;5004820;28;20386;-68
2023/10/05 12:31:46;;;;;;;4.43;0.88;;;16.70;89.70;;;;;;5009133;28;20030;-67
2023/10/05 12:34:16;;;;;;;3.83;1.00;;;16.60;89.60;;;;;;5015629;28;20038;-67
2023/10/05 12:36:49;;;;;;;4.38;0.80;;;16.50;89.40;;;;;;5003192;28;20026;-68
2023/10/05 12:39:18;;;;;;;3.17;0.90;;;16.30;89.80;;;;;;5007012;28;20037;-70
2023/10/05 12:41:48;;;;;;;5.50;0.93;;;16.30;89.70;;;;;;5001143;28;20518;-69
2023/10/05 12:44:14;;;;;;;5.63;1.15;;;16.20;89.70;;;;;;5003218;28;20546;-68
2023/10/05 12:46:47;;;;;;;9.50;1.30;;;16.30;89.80;;;;;;5007633;28;20493;-67
2023/10/05 12:49:14;;;;;;;5.38;1.17;;;16.30;90.20;;;;;;5009299;28;20032;-67
2023/10/05 12:51:44;;;;;;;7.75;1.30;;;16.50;89.90;;;;;;5009242;28;20037;-68
2023/10/05 12:54:28;;;;;;;5.20;1.30;;;16.80;89.10;;;;;;5008247;28;20034;-67
2023/10/05 12:56:53;;;;;;;5.88;1.15;;;16.70;88.10;;;;;;5011084;28;20073;-68
2023/10/05 12:59:19;;;;;;;4.43;1.08;;;16.80;87.30;;;;;;5009028;28;20057;-67
2023/10/05 13:01:46;;;;;;;8.07;1.58;;;17.10;87.90;;;;;;5008945;28;20041;-68
2023/10/05 13:04:16;;;;;;;4.47;0.80;;;17.70;85.80;;;;;;5006456;28;20034;-67
2023/10/05 13:06:44;;;;;;;3.78;1.15;;;18.00;83.40;;;;;;5013378;28;20026;-68
2023/10/05 13:09:18;;;;;;;4.15;0.95;;;18.50;82.40;;;;;;5007907;28;20034;-67